Time;durP1;ratioP1;P1;durP2;ratioP2;P2;SDS_P1;SDS_P2;PMS_P1;PMS_P2;Temp;Humidity;BMP_temperature;BMP_pressure;BME280_temperature;BME280_humidity;BME280_pressure;Samples;Min_cycle;Max_cycle;Signal;HPM_P1;HPM_P2
2021/10/15 00:02:03;;;;;;;34.38;15.38;;;;;;;;;;4982576;28;20036;-67
2021/10/15 00:04:29;;;;;;;24.20;14.73;;;;;;;;;;4981928;28;20040;-67
2021/10/15 00:06:54;;;;;;;30.27;14.25;;;;;;;;;;4980176;28;20398;-67
2021/10/15 00:09:21;;;;;;;22.98;13.93;;;;;;;;;;4981751;28;20080;-67
2021/10/15 00:11:47;;;;;;;25.60;15.00;;;;;;;;;;4981535;28;20038;-67
2021/10/15 00:14:13;;;;;;;22.80;13.70;;;;;;;;;;4981134;28;20026;-67
2021/10/15 00:16:39;;;;;;;22.35;13.85;;;;;;;;;;4981790;28;20072;-67
2021/10/15 00:19:05;;;;;;;21.73;12.90;;;;;;;;;;4980692;28;20031;-67
2021/10/15 00:21:31;;;;;;;22.42;13.25;;;;;;;;;;4981715;28;20038;-67
2021/10/15 00:23:57;;;;;;;20.50;12.80;;;;;;;;;;4981107;28;20040;-67
2021/10/15 00:26:23;;;;;;;21.70;13.02;;;;;;;;;;4981767;28;20031;-67
2021/10/15 00:28:49;;;;;;;26.48;13.20;;;;;;;;;;4981170;28;20081;-67
2021/10/15 00:31:15;;;;;;;24.92;12.75;;;;;;;;;;4981563;28;20038;-67
2021/10/15 00:33:41;;;;;;;23.80;14.18;;;;;;;;;;4985482;28;20092;-67
2021/10/15 00:36:07;;;;;;;24.15;12.63;;;;;;;;;;4984326;28;20842;-67
2021/10/15 00:38:33;;;;;;;31.05;14.38;;;;;;;;;;4986134;28;20402;-67
2021/10/15 00:40:59;;;;;;;25.15;13.07;;;;;;;;;;4983120;28;20018;-67
2021/10/15 00:43:25;;;;;;;21.38;12.95;;;;;;;;;;4984733;28;20039;-67
2021/10/15 00:45:51;;;;;;;25.02;12.63;;;;;;;;;;4985457;28;20030;-67
2021/10/15 00:48:17;;;;;;;20.30;12.95;;;;;;;;;;4982900;28;20030;-67
2021/10/15 00:50:43;;;;;;;19.45;12.20;;;;;;;;;;4982558;28;20076;-67
2021/10/15 00:53:08;;;;;;;19.80;11.32;;;12.60;99.90;;;;;;4985540;28;20034;-67
2021/10/15 00:55:34;;;;;;;23.23;12.23;;;;;;;;;;4983247;28;20682;-67
2021/10/15 00:58:00;;;;;;;23.27;12.13;;;;;;;;;;4983711;28;20141;-67
2021/10/15 01:00:26;;;;;;;19.73;12.35;;;;;;;;;;4982316;28;20045;-67
2021/10/15 01:02:52;;;;;;;22.45;12.65;;;;;;;;;;4984180;28;20033;-67
2021/10/15 01:05:18;;;;;;;25.58;12.13;;;;;;;;;;4985550;28;20871;-67
2021/10/15 01:07:44;;;;;;;18.73;11.93;;;;;;;;;;4984877;28;20042;-67
2021/10/15 01:10:10;;;;;;;20.58;11.27;;;;;;;;;;4985080;28;20070;-67
2021/10/15 01:12:36;;;;;;;24.27;12.57;;;;;;;;;;4984678;28;20049;-67
2021/10/15 01:15:02;;;;;;;20.98;12.30;;;;;;;;;;4985461;28;20030;-67
2021/10/15 01:17:28;;;;;;;19.38;10.95;;;;;;;;;;4985785;28;20038;-67
2021/10/15 01:19:54;;;;;;;18.42;11.10;;;;;;;;;;4983907;28;20045;-67
2021/10/15 01:22:20;;;;;;;20.70;11.73;;;;;;;;;;4976181;28;20035;-67
2021/10/15 01:24:45;;;;;;;21.85;11.35;;;12.90;99.90;;;;;;4985829;28;20600;-67
2021/10/15 01:27:12;;;;;;;18.00;11.00;;;;;;;;;;4979437;28;20054;-67
2021/10/15 01:29:37;;;;;;;21.38;11.52;;;11.60;99.90;;;;;;4983574;28;20492;-67
2021/10/15 01:32:04;;;;;;;19.45;11.18;;;;;;;;;;4983558;28;20038;-67
2021/10/15 01:34:30;;;;;;;20.02;11.13;;;;;;;;;;4982435;28;20770;-67
2021/10/15 01:36:56;;;;;;;18.58;11.57;;;;;;;;;;4983106;28;20406;-67
2021/10/15 01:39:22;;;;;;;18.50;11.80;;;;;;;;;;4983011;28;20479;-67
2021/10/15 01:41:48;;;;;;;17.20;11.27;;;;;;;;;;4983335;28;20121;-67
2021/10/15 01:44:14;;;;;;;21.10;11.73;;;;;;;;;;4982384;28;20161;-67
2021/10/15 01:46:40;;;;;;;20.42;10.90;;;;;;;;;;4984208;28;20034;-67
2021/10/15 01:49:05;;;;;;;18.27;10.95;;;12.80;99.90;;;;;;4984313;28;20121;-66
2021/10/15 01:51:31;;;;;;;16.08;10.27;;;;;;;;;;4983189;28;20038;-67
2021/10/15 01:53:57;;;;;;;19.55;10.40;;;;;;;;;;4983872;28;20034;-67
2021/10/15 01:56:23;;;;;;;19.17;10.90;;;;;;;;;;4984478;28;20805;-67
2021/10/15 01:58:49;;;;;;;16.13;9.70;;;;;;;;;;4982700;28;20160;-67
2021/10/15 02:01:15;;;;;;;17.83;10.30;;;;;;;;;;4991397;28;20049;-67
2021/10/15 02:03:41;;;;;;;18.08;10.00;;;;;;;;;;4982312;28;20030;-67
2021/10/15 02:06:07;;;;;;;17.35;10.75;;;;;;;;;;4982968;28;20038;-67
2021/10/15 02:08:33;;;;;;;16.90;10.48;;;;;;;;;;4983399;28;20092;-67
2021/10/15 02:10:59;;;;;;;15.35;10.02;;;;;;;;;;4983856;28;20034;-67
2021/10/15 02:13:25;;;;;;;19.23;10.60;;;;;;;;;;4983958;28;20034;-67
2021/10/15 02:15:51;;;;;;;18.50;10.88;;;;;;;;;;4990284;28;20038;-67
2021/10/15 02:18:17;;;;;;;17.98;10.38;;;;;;;;;;4981919;28;20478;-67
2021/10/15 02:20:43;;;;;;;14.13;9.70;;;;;;;;;;4984368;28;20045;-67
2021/10/15 02:23:09;;;;;;;19.98;10.00;;;;;;;;;;4991779;28;20026;-67
2021/10/15 02:25:34;;;;;;;17.08;10.07;;;12.10;99.90;;;;;;4974204;28;20084;-67
2021/10/15 02:28:00;;;;;;;20.55;10.70;;;;;;;;;;4984438;28;20402;-67
2021/10/15 02:30:26;;;;;;;18.42;10.40;;;;;;;;;;4984259;28;20034;-67
2021/10/15 02:32:52;;;;;;;15.68;10.48;;;;;;;;;;4974126;28;20783;-67
2021/10/15 02:35:18;;;;;;;15.75;10.23;;;;;;;;;;4983931;28;20049;-67
2021/10/15 02:37:44;;;;;;;18.27;9.63;;;;;;;;;;4981167;28;20791;-67
2021/10/15 02:40:10;;;;;;;18.05;9.95;;;;;;;;;;4982195;28;20153;-67
2021/10/15 02:42:36;;;;;;;18.88;10.50;;;;;;;;;;4988338;28;20034;-67
2021/10/15 02:45:02;;;;;;;17.33;9.50;;;;;;;;;;4982914;28;20667;-67
2021/10/15 02:47:28;;;;;;;19.08;10.52;;;;;;;;;;4982515;28;20088;-67
2021/10/15 02:49:54;;;;;;;17.88;9.40;;;;;;;;;;4981969;28;20037;-67
2021/10/15 02:52:20;;;;;;;17.38;10.38;;;;;;;;;;4982825;28;20041;-67
2021/10/15 02:54:46;;;;;;;15.23;9.15;;;;;;;;;;4996817;28;20423;-67
2021/10/15 02:57:12;;;;;;;17.30;9.38;;;;;;;;;;4981652;28;20030;-67
2021/10/15 02:59:38;;;;;;;15.15;9.10;;;;;;;;;;4981989;28;20066;-67
2021/10/15 03:02:04;;;;;;;19.88;10.10;;;;;;;;;;4980542;28;20037;-67
2021/10/15 03:04:30;;;;;;;18.13;9.60;;;;;;;;;;4980836;28;20026;-67
2021/10/15 03:06:56;;;;;;;13.73;8.65;;;;;;;;;;4977499;28;20034;-67
2021/10/15 03:09:22;;;;;;;16.20;8.70;;;;;;;;;;4980269;28;20129;-67
2021/10/15 03:11:48;;;;;;;14.27;8.55;;;;;;;;;;4979717;28;20041;-67
2021/10/15 03:14:14;;;;;;;17.38;9.60;;;;;;;;;;4980928;28;20065;-67
2021/10/15 03:16:40;;;;;;;11.60;8.55;;;;;;;;;;4983032;28;20037;-67
2021/10/15 03:19:06;;;;;;;14.55;8.55;;;;;;;;;;4982606;28;20084;-67
2021/10/15 03:21:32;;;;;;;13.75;8.48;;;;;;;;;;4982110;28;20038;-67
2021/10/15 03:23:57;;;;;;;14.07;7.80;;;11.40;99.90;;;;;;4997649;28;20108;-67
2021/10/15 03:26:25;;;;;;;15.25;8.68;;;;;;;;;;4981039;28;20045;-67
2021/10/15 03:28:52;;;;;;;15.00;8.85;;;;;;;;;;4996603;28;20109;-67
2021/10/15 03:31:18;;;;;;;14.50;8.60;;;;;;;;;;4983445;28;20117;-67
2021/10/15 03:33:44;;;;;;;12.65;7.95;;;;;;;;;;4982511;28;20042;-67
2021/10/15 03:36:10;;;;;;;14.57;8.15;;;;;;;;;;4972341;28;20046;-67
2021/10/15 03:38:36;;;;;;;12.40;8.48;;;;;;;;;;4981560;28;20071;-67
2021/10/15 03:41:02;;;;;;;13.13;8.30;;;;;;;;;;4981645;28;20033;-67
2021/10/15 03:43:28;;;;;;;13.88;8.10;;;11.70;99.90;;;;;;4981686;28;20026;-67
2021/10/15 03:45:54;;;;;;;21.52;8.82;;;;;;;;;;4981414;28;20364;-67
2021/10/15 03:48:20;;;;;;;14.27;8.43;;;;;;;;;;4982438;28;20861;-67
2021/10/15 03:50:46;;;;;;;17.77;8.75;;;;;;;;;;4979881;28;20920;-67
2021/10/15 03:53:12;;;;;;;13.88;8.55;;;;;;;;;;4981594;28;20038;-68
2021/10/15 03:55:38;;;;;;;15.18;8.10;;;;;;;;;;4982218;28;20041;-67
2021/10/15 03:58:04;;;;;;;14.70;8.27;;;;;;;;;;4988721;28;20112;-67
2021/10/15 04:00:30;;;;;;;16.27;7.93;;;;;;;;;;4982505;28;20379;-67
2021/10/15 04:02:56;;;;;;;12.27;7.97;;;;;;;;;;4981113;28;20036;-67
2021/10/15 04:05:22;;;;;;;14.65;8.05;;;;;;;;;;4982118;28;20026;-67
2021/10/15 04:07:48;;;;;;;13.02;7.88;;;;;;;;;;4998172;28;20049;-67
2021/10/15 04:10:14;;;;;;;12.60;8.05;;;;;;;;;;4982215;28;20483;-67
2021/10/15 04:12:40;;;;;;;16.83;8.60;;;;;;;;;;4981581;28;20494;-67
2021/10/15 04:15:05;;;;;;;18.77;7.97;;;12.50;99.90;;;;;;4987568;28;20038;-67
2021/10/15 04:17:31;;;;;;;13.38;8.25;;;;;;;;;;4979686;28;20076;-67
2021/10/15 04:19:57;;;;;;;12.98;8.23;;;;;;;;;;4979721;28;20242;-67
2021/10/15 04:22:25;;;;;;;16.88;9.05;;;;;;;;;;4979910;28;20375;-67
2021/10/15 04:24:51;;;;;;;12.93;8.00;;;;;;;;;;4979854;28;20038;-67
2021/10/15 04:27:17;;;;;;;17.27;8.60;;;;;;;;;;4980046;28;20499;-67
2021/10/15 04:29:43;;;;;;;14.40;7.75;;;;;;;;;;4987765;28;20040;-67
2021/10/15 04:32:09;;;;;;;15.68;7.55;;;;;;;;;;4980452;28;20121;-67
2021/10/15 04:34:35;;;;;;;13.07;8.18;;;;;;;;;;4981682;28;20034;-67
2021/10/15 04:37:01;;;;;;;13.20;8.60;;;;;;;;;;4980365;28;20042;-67
2021/10/15 04:39:27;;;;;;;15.70;7.90;;;;;;;;;;4980701;28;20045;-69
2021/10/15 04:41:53;;;;;;;17.00;9.02;;;;;;;;;;4980045;28;20101;-69
2021/10/15 04:44:19;;;;;;;13.95;8.13;;;;;;;;;;4982588;28;20475;-69
2021/10/15 04:46:45;;;;;;;13.68;7.53;;;;;;;;;;4980758;28;20486;-69
2021/10/15 04:49:11;;;;;;;14.40;7.63;;;;;;;;;;4980350;28;20041;-69
2021/10/15 04:51:37;;;;;;;13.43;8.13;;;;;;;;;;4997324;28;20077;-69
2021/10/15 04:54:03;;;;;;;14.68;8.10;;;;;;;;;;4981240;28;20066;-69
2021/10/15 04:56:30;;;;;;;15.98;8.32;;;;;;;;;;4982062;28;20049;-69
2021/10/15 04:58:56;;;;;;;33.40;8.80;;;;;;;;;;4996073;28;20042;-69
2021/10/15 05:01:22;;;;;;;15.18;7.97;;;;;;;;;;4979458;28;20100;-69
2021/10/15 05:03:48;;;;;;;14.65;8.15;;;12.30;99.90;;;;;;4981262;28;20054;-69
2021/10/15 05:06:14;;;;;;;14.15;8.25;;;;;;;;;;4981910;28;20449;-69
2021/10/15 05:09:42;;;;;;;12.32;7.45;;;;;;;;;;4979780;28;20038;-69
2021/10/15 05:11:36;;;;;;;13.40;7.63;;;;;;;;;;4977254;28;20062;-69
2021/10/15 05:14:02;;;;;;;13.38;7.40;;;;;;;;;;4979810;28;20057;-69
2021/10/15 05:16:27;;;;;;;15.07;7.60;;;;;;;;;;4980141;28;20033;-69
2021/10/15 05:18:53;;;;;;;13.43;7.05;;;;;;;;;;4981439;28;20137;-69
2021/10/15 05:21:19;;;;;;;14.98;8.00;;;;;;;;;;4984051;28;20807;-69
2021/10/15 05:23:45;;;;;;;14.82;8.15;;;;;;;;;;4984789;28;20034;-67
2021/10/15 05:26:11;;;;;;;13.00;6.88;;;;;;;;;;4981563;28;20137;-67
2021/10/15 05:28:37;;;;;;;12.48;7.03;;;;;;;;;;4982560;28;20073;-67
2021/10/15 05:31:03;;;;;;;13.60;6.72;;;;;;;;;;4990799;28;20034;-67
2021/10/15 05:33:29;;;;;;;11.07;6.55;;;;;;;;;;4982423;28;20113;-66
2021/10/15 05:35:55;;;;;;;10.07;6.15;;;11.80;99.90;;;;;;4984119;28;20732;-66
2021/10/15 05:38:21;;;;;;;11.05;6.65;;;;;;;;;;4990459;28;20041;-66
2021/10/15 05:40:47;;;;;;;11.43;6.03;;;;;;;;;;4983168;28;20038;-65
2021/10/15 05:43:13;;;;;;;10.10;6.30;;;;;;;;;;4984538;28;20478;-64
2021/10/15 05:45:39;;;;;;;12.57;6.43;;;;;;;;;;4983669;28;20034;-65
2021/10/15 05:48:05;;;;;;;10.05;6.38;;;;;;;;;;4982309;28;20141;-65
2021/10/15 05:50:32;;;;;;;10.55;5.50;;;;;;;;;;4985275;28;20080;-65
2021/10/15 05:53:06;;;;;;;11.43;6.28;;;;;;;;;;4988486;28;20038;-65
2021/10/15 06:01:02;;;;;;;12.10;5.80;;;;;;;;;;4984003;28;20121;-65
2021/10/15 06:03:28;;;;;;;10.20;5.05;;;;;;;;;;4985160;28;20105;-65
2021/10/15 06:06:54;;;;;;;7.50;5.30;;;;;;;;;;4983493;28;20054;-65
2021/10/15 06:14:24;;;;;;;12.55;5.20;;;;;;;;;;4983669;28;20042;-65
2021/10/15 06:16:53;;;;;;;8.85;5.15;;;;;;;;;;4983436;28;20039;-65
2021/10/15 06:19:24;;;;;;;14.02;5.45;;;;;;;;;;4981378;28;20808;-65
2021/10/15 06:21:50;;;;;;;9.25;4.90;;;;;;;;;;4984753;28;20045;-66
2021/10/15 06:24:16;;;;;;;14.38;5.47;;;;;;;;;;4983977;28;20034;-65
2021/10/15 06:26:42;;;;;;;14.40;5.25;;;12.30;99.90;;;;;;4984608;28;20054;-64
2021/10/15 06:29:08;;;;;;;12.43;4.55;;;;;;;;;;4983498;28;20074;-64
2021/10/15 06:31:34;;;;;;;10.00;5.13;;;;;;;;;;4981167;28;20038;-64
2021/10/15 06:34:00;;;;;;;8.38;4.93;;;;;;;;;;4984111;28;20093;-64
2021/10/15 06:36:26;;;;;;;9.23;3.83;;;;;;;;;;4983618;28;20042;-68
2021/10/15 06:38:52;;;;;;;6.45;3.85;;;;;;;;;;4981897;28;20034;-64
2021/10/15 06:41:18;;;;;;;11.15;4.47;;;;;;;;;;4984170;28;20046;-64
2021/10/15 06:43:44;;;;;;;7.50;3.88;;;;;;;;;;4983609;28;20037;-64
2021/10/15 06:46:10;;;;;;;10.25;4.07;;;;;;;;;;4984454;28;20596;-65
2021/10/15 06:48:36;;;;;;;7.38;3.75;;;;;;;;;;4983525;28;20034;-65
2021/10/15 06:51:02;;;;;;;8.00;4.28;;;;;;;;;;4982714;28;20030;-65
2021/10/15 06:53:28;;;;;;;12.48;4.35;;;;;;;;;;4983240;28;20030;-66
2021/10/15 06:55:54;;;;;;;7.25;3.50;;;;;;;;;;4993449;23;20038;-66
2021/10/15 06:58:20;;;;;;;7.72;3.50;;;;;;;;;;4978442;28;20557;-66
2021/10/15 07:00:47;;;;;;;10.13;4.70;;;;;;;;;;4980893;28;20045;-67
2021/10/15 07:03:12;;;;;;;14.48;5.53;;;;;;;;;;4980539;28;20031;-65
2021/10/15 07:05:38;;;;;;;9.38;4.50;;;;;;;;;;4982617;28;20037;-65
2021/10/15 07:08:04;;;;;;;9.73;4.63;;;;;;;;;;4980342;28;20069;-65
2021/10/15 07:10:30;;;;;;;17.55;5.60;;;;;;;;;;4982265;28;20038;-66
2021/10/15 07:12:56;;;;;;;10.77;4.32;;;;;;;;;;4981680;28;20117;-64
2021/10/15 07:15:22;;;;;;;15.43;5.10;;;;;;;;;;4981159;28;20038;-64
2021/10/15 07:17:48;;;;;;;9.52;4.18;;;;;;;;;;4982221;28;20042;-65
2021/10/15 07:20:15;;;;;;;7.18;3.40;;;;;;;;;;4982786;28;20040;-65
2021/10/15 07:22:41;;;;;;;17.02;6.43;;;;;;;;;;4983345;28;20042;-65
2021/10/15 07:25:08;;;;;;;11.95;4.43;;;;;;;;;;4981561;28;20026;-65
2021/10/15 07:27:34;;;;;;;12.80;4.65;;;;;;;;;;4990370;28;20038;-64
2021/10/15 07:30:01;;;;;;;11.68;4.55;;;;;;;;;;4981977;28;20619;-65
2021/10/15 07:32:27;;;;;;;7.70;3.60;;;;;;;;;;4980917;28;20034;-64
2021/10/15 07:34:53;;;;;;;8.88;4.22;;;;;;;;;;4982224;28;20548;-64
2021/10/15 07:37:19;;;;;;;13.27;3.97;;;;;;;;;;4980773;28;20128;-68
2021/10/15 07:39:45;;;;;;;7.95;3.20;;;;;;;;;;4981841;28;20046;-68
2021/10/15 07:42:11;;;;;;;27.35;7.93;;;;;;;;;;4980121;28;20030;-68
2021/10/15 07:44:37;;;;;;;10.35;4.38;;;;;;;;;;4979707;28;20498;-68
2021/10/15 07:47:03;;;;;;;9.50;3.67;;;;;;;;;;4981435;28;20042;-68
2021/10/15 07:49:29;;;;;;;9.88;3.97;;;;;;;;;;4981381;28;20129;-68
2021/10/15 07:51:55;;;;;;;7.35;2.83;;;;;;;;;;4981220;28;20121;-68
2021/10/15 07:54:21;;;;;;;8.80;3.63;;;;;;;;;;4993397;28;20179;-67
2021/10/15 07:56:47;;;;;;;14.70;5.43;;;;;;;;;;4981135;28;20046;-67
2021/10/15 07:59:13;;;;;;;13.82;4.60;;;;;;;;;;4980005;28;20097;-68
2021/10/15 08:01:39;;;;;;;8.60;3.67;;;;;;;;;;4982395;28;20065;-67
2021/10/15 08:04:05;;;;;;;5.50;3.58;;;;;;;;;;4981416;28;20484;-68
2021/10/15 08:06:31;;;;;;;6.70;3.28;;;;;;;;;;4982818;28;20165;-67
2021/10/15 08:08:57;;;;;;;7.13;4.05;;;;;;;;;;4979765;28;20133;-68
2021/10/15 08:11:23;;;;;;;9.15;3.80;;;;;;;;;;4981552;28;20045;-68
2021/10/15 08:13:49;;;;;;;6.72;3.20;;;;;;;;;;4982405;28;20401;-68
2021/10/15 08:16:17;;;;;;;11.00;3.65;;;;;;;;;;4981837;28;20043;-68
2021/10/15 08:18:43;;;;;;;6.47;2.95;;;;;;;;;;4980256;28;20042;-71
2021/10/15 08:21:09;;;;;;;6.88;2.97;;;;;;;;;;4981840;28;20053;-68
2021/10/15 08:23:35;;;;;;;9.90;4.28;;;;;;;;;;4976559;28;20027;-68
2021/10/15 08:26:01;;;;;;;6.32;2.70;;;;;;;;;;4982404;28;20478;-68
2021/10/15 08:28:27;;;;;;;7.18;3.35;;;;;;;;;;4981081;28;20026;-68
2021/10/15 08:30:53;;;;;;;7.25;2.78;;;;;;;;;;4977542;28;20041;-69
2021/10/15 08:33:18;;;;;;;5.88;2.85;;;;;;;;;;4981052;28;20034;-69
2021/10/15 08:35:44;;;;;;;10.43;3.15;;;;;;;;;;4978567;28;20039;-67
2021/10/15 08:38:10;;;;;;;6.75;2.80;;;;;;;;;;4981462;28;20041;-68
2021/10/15 08:40:36;;;;;;;12.45;3.20;;;;;;;;;;4981645;28;20092;-67
2021/10/15 08:43:02;;;;;;;6.60;3.08;;;;;;;;;;4979883;28;20116;-67
2021/10/15 08:45:28;;;;;;;7.07;3.10;;;;;;;;;;4978284;28;20031;-67
2021/10/15 08:47:54;;;;;;;5.43;2.50;;;;;;;;;;4992848;28;20121;-69
2021/10/15 08:50:20;;;;;;;9.55;2.80;;;;;;;;;;4993590;28;20537;-69
2021/10/15 08:52:46;;;;;;;13.50;3.85;;;;;;;;;;4978394;28;20522;-69
2021/10/15 08:55:12;;;;;;;7.03;2.30;;;;;;;;;;4982047;28;20041;-69
2021/10/15 08:57:38;;;;;;;6.57;2.38;;;;;;;;;;4996989;28;20054;-67
2021/10/15 09:00:04;;;;;;;8.55;3.00;;;;;;;;;;4981711;28;20117;-67
2021/10/15 09:02:32;;;;;;;11.38;3.63;;;;;;;;;;4997301;28;20030;-67
2021/10/15 09:04:58;;;;;;;10.40;3.60;;;;;;;;;;4982606;28;20068;-67
2021/10/15 09:07:24;;;;;;;5.13;2.45;;;;;;;;;;4980499;28;20058;-67
2021/10/15 09:09:56;;;;;;;10.40;2.85;;;;;;;;;;4982379;28;20141;-66
2021/10/15 09:12:22;;;;;;;7.55;3.22;;;;;;;;;;4982028;28;20038;-67
2021/10/15 09:14:48;;;;;;;4.40;2.20;;;;;;;;;;4981441;28;20102;-67
2021/10/15 09:17:16;;;;;;;16.60;3.28;;;;;;;;;;4981417;28;20125;-66
2021/10/15 09:19:42;;;;;;;6.45;2.88;;;;;;;;;;4996134;28;20030;-67
2021/10/15 09:22:08;;;;;;;7.15;2.72;;;;;;;;;;4980048;28;20034;-66
2021/10/15 09:24:36;;;;;;;7.85;2.55;;;;;;;;;;4981710;28;20036;-66
2021/10/15 09:27:02;;;;;;;7.32;2.85;;;;;;;;;;4981453;28;20042;-67
2021/10/15 09:29:28;;;;;;;6.65;2.75;;;;;;;;;;4978899;28;20031;-67
2021/10/15 09:31:53;;;;;;;6.72;2.97;;;;;;;;;;4961945;28;20093;-67
2021/10/15 09:34:19;;;;;;;5.57;2.20;;;;;;;;;;4996880;28;20035;-66
2021/10/15 09:36:45;;;;;;;5.18;2.15;;;;;;;;;;4980880;28;20042;-67
2021/10/15 09:39:11;;;;;;;13.48;3.17;;;;;;;;;;4980489;28;20077;-67
2021/10/15 09:41:37;;;;;;;5.90;2.40;;;;;;;;;;4981596;28;20502;-69
2021/10/15 09:44:03;;;;;;;8.20;2.55;;;;;;;;;;4980607;28;20031;-67
2021/10/15 09:46:29;;;;;;;10.20;2.50;;;;;;;;;;4996526;28;20050;-67
2021/10/15 09:48:55;;;;;;;3.85;2.00;;;;;;;;;;4979926;28;20030;-67
2021/10/15 09:51:22;;;;;;;5.30;2.20;;;;;;;;;;4980638;28;20406;-67
2021/10/15 09:53:48;;;;;;;4.18;2.20;;;13.70;99.90;;;;;;4981515;28;20038;-68
2021/10/15 09:56:14;;;;;;;7.60;4.35;;;;;;;;;;4980210;28;20048;-67
2021/10/15 09:58:40;;;;;;;5.97;2.72;;;;;;;;;;4980944;28;20544;-68
2021/10/15 10:01:06;;;;;;;3.72;2.10;;;;;;;;;;4981141;28;20030;-67
2021/10/15 10:03:32;;;;;;;6.85;2.33;;;;;;;;;;4995688;28;20670;-67
2021/10/15 10:05:58;;;;;;;7.57;2.17;;;;;;;;;;4980792;28;20037;-67
2021/10/15 10:08:23;;;;;;;5.57;2.58;;;;;;;;;;4980371;28;20707;-66
2021/10/15 10:10:50;;;;;;;4.50;2.30;;;;;;;;;;4996341;28;20876;-67
2021/10/15 10:13:15;;;;;;;7.30;2.55;;;;;;;;;;4995781;28;20097;-67
2021/10/15 10:15:41;;;;;;;9.68;2.50;;;;;;;;;;4980578;28;20100;-67
2021/10/15 10:18:13;;;;;;;18.23;2.72;;;;;;;;;;4980971;28;20153;-66
2021/10/15 10:20:39;;;;;;;10.73;5.30;;;;;;;;;;4994450;28;20173;-66
2021/10/15 10:23:05;;;;;;;12.00;3.00;;;;;;;;;;4980673;28;20030;-67
2021/10/15 10:25:31;;;;;;;5.22;2.67;;;;;;;;;;4995675;28;20045;-67
2021/10/15 10:27:57;;;;;;;6.55;2.85;;;;;;;;;;4979300;28;20111;-66
2021/10/15 10:30:23;;;;;;;12.75;2.40;;;;;;;;;;4980967;28;20660;-66
2021/10/15 10:32:49;;;;;;;5.38;2.40;;;;;;;;;;4980904;28;20030;-66
2021/10/15 10:35:15;;;;;;;5.32;2.95;;;;;;;;;;4980944;28;20026;-66
2021/10/15 10:37:41;;;;;;;6.78;2.60;;;;;;;;;;4982636;28;20049;-67
2021/10/15 10:40:07;;;;;;;5.47;2.90;;;;;;;;;;4982214;28;20886;-66
2021/10/15 10:42:33;;;;;;;5.35;2.72;;;;;;;;;;4982829;28;20109;-67
2021/10/15 10:44:59;;;;;;;6.80;3.08;;;13.80;99.90;;;;;;4981163;28;20165;-67
2021/10/15 10:47:24;;;;;;;5.28;2.78;;;13.20;99.90;;;;;;4994491;28;20650;-67
2021/10/15 10:49:50;;;;;;;7.03;3.15;;;;;;;;;;4980610;28;20034;-66
2021/10/15 10:52:16;;;;;;;7.30;3.10;;;;;;;;;;4980446;28;20030;-66
2021/10/15 10:54:42;;;;;;;10.82;3.63;;;;;;;;;;4980340;28;20122;-67
2021/10/15 10:57:08;;;;;;;10.82;3.20;;;;;;;;;;4979068;28;20125;-66
2021/10/15 10:59:34;;;;;;;11.68;3.58;;;;;;;;;;4979501;28;20712;-66
2021/10/15 11:02:02;;;;;;;10.77;3.40;;;;;;;;;;4994895;28;20034;-67
2021/10/15 11:04:28;;;;;;;8.43;3.13;;;;;;;;;;4978736;28;20058;-67
2021/10/15 11:06:55;;;;;;;7.07;3.10;;;;;;;;;;4979143;28;20035;-67
2021/10/15 11:09:21;;;;;;;5.88;3.33;;;;;;;;;;4979546;28;20117;-66
2021/10/15 11:11:47;;;;;;;12.38;4.68;;;;;;;;;;4979435;28;20042;-66
2021/10/15 11:14:13;;;;;;;9.13;3.63;;;;;;;;;;4980767;28;20038;-67
2021/10/15 11:16:39;;;;;;;8.93;3.70;;;;;;;;;;4979176;28;20149;-67
2021/10/15 11:19:05;;;;;;;8.20;3.72;;;;;;;;;;4980126;28;20040;-66
2021/10/15 11:21:32;;;;;;;7.35;3.88;;;;;;;;;;4980948;28;20709;-67
2021/10/15 11:23:58;;;;;;;17.27;5.05;;;;;;;;;;4980526;28;20038;-66
2021/10/15 11:26:24;;;;;;;7.95;4.70;;;;;;;;;;4980101;28;20418;-66
2021/10/15 11:28:50;;;;;;;9.48;4.88;;;;;;;;;;4980071;28;20027;-67
2021/10/15 11:31:17;;;;;;;11.57;4.53;;;;;;;;;;4981085;28;20042;-67
2021/10/15 11:33:45;;;;;;;6.88;3.30;;;;;;;;;;4980767;28;20124;-66
2021/10/15 11:36:11;;;;;;;8.30;4.18;;;;;;;;;;4979980;28;20692;-66
2021/10/15 11:38:37;;;;;;;13.20;4.05;;;;;;;;;;4980121;28;20038;-66
2021/10/15 11:41:03;;;;;;;8.25;4.50;;;;;;;;;;4979285;28;20026;-67
2021/10/15 11:43:29;;;;;;;11.07;4.15;;;;;;;;;;4994536;28;20112;-67
2021/10/15 11:45:55;;;;;;;10.02;4.40;;;;;;;;;;4978494;28;20038;-67
2021/10/15 11:48:21;;;;;;;6.28;3.13;;;;;;;;;;4979211;28;20069;-66
2021/10/15 11:50:47;;;;;;;10.10;2.05;;;;;;;;;;4979745;28;20511;-66
2021/10/15 11:53:13;;;;;;;3.42;1.65;;;;;;;;;;4979722;28;20088;-66
2021/10/15 11:55:39;;;;;;;2.88;1.88;;;;;;;;;;4979226;28;20042;-67
2021/10/15 11:58:05;;;;;;;4.65;1.92;;;;;;;;;;4978983;28;20038;-66
2021/10/15 12:00:31;;;;;;;5.72;2.50;;;;;;;;;;4978877;28;20041;-67
2021/10/15 12:02:56;;;;;;;4.90;1.88;;;11.30;99.90;;;;;;4979912;28;20030;-66
2021/10/15 12:05:22;;;;;;;16.75;7.40;;;;;;;;;;4978711;28;20774;-66
2021/10/15 12:07:48;;;;;;;16.88;8.18;;;;;;;;;;4979247;28;20048;-66
2021/10/15 12:10:14;;;;;;;2.97;1.27;;;;;;;;;;4978217;28;20034;-66
2021/10/15 12:12:40;;;;;;;1.73;1.25;;;;;;;;;;4979212;28;20030;-66
2021/10/15 12:15:06;;;;;;;1.48;1.10;;;;;;;;;;4979486;28;20076;-66
2021/10/15 12:17:32;;;;;;;4.72;1.65;;;;;;;;;;4979347;28;20842;-66
2021/10/15 12:19:58;;;;;;;1.85;1.30;;;;;;;;;;4978595;28;20079;-66
2021/10/15 12:22:24;;;;;;;2.63;1.35;;;;;;;;;;4979749;28;20065;-66
2021/10/15 12:24:50;;;;;;;2.10;1.20;;;;;;;;;;4978977;28;20085;-66
2021/10/15 12:27:16;;;;;;;3.38;1.20;;;;;;;;;;4978561;28;20070;-66
2021/10/15 12:29:42;;;;;;;1.40;1.20;;;;;;;;;;4994052;28;20039;-66
2021/10/15 12:32:08;;;;;;;1.40;1.20;;;;;;;;;;4979062;28;20046;-66
2021/10/15 12:34:34;;;;;;;3.33;1.30;;;;;;;;;;4978684;28;20717;-65
2021/10/15 12:37:00;;;;;;;5.28;3.25;;;;;;;;;;4978381;28;20064;-66
2021/10/15 12:39:26;;;;;;;4.18;2.00;;;;;;;;;;4977639;28;20037;-66
2021/10/15 12:41:52;;;;;;;2.40;1.30;;;;;;;;;;4978648;28;20421;-65
2021/10/15 12:44:18;;;;;;;4.03;2.20;;;;;;;;;;4978368;28;20038;-65
2021/10/15 12:46:44;;;;;;;1.48;1.35;;;;;;;;;;4974386;28;20679;-66
2021/10/15 12:49:10;;;;;;;2.60;1.80;;;;;;;;;;4974639;28;20038;-65
2021/10/15 12:51:37;;;;;;;2.65;1.90;;;;;;;;;;4979092;28;20034;-65
2021/10/15 12:54:03;;;;;;;4.95;1.85;;;;;;;;;;4979537;28;20045;-65
2021/10/15 12:56:32;;;;;;;5.18;1.60;;;;;;;;;;4978574;28;20573;-65
2021/10/15 12:58:58;;;;;;;1.75;1.40;;;;;;;;;;4977456;28;20538;-65
2021/10/15 13:01:24;;;;;;;4.28;1.60;;;;;;;;;;4979660;28;20106;-67
2021/10/15 13:03:50;;;;;;;9.05;4.60;;;;;;;;;;4977979;28;20505;-65
2021/10/15 13:06:16;;;;;;;3.50;1.45;;;;;;;;;;4979107;28;20027;-67
2021/10/15 13:08:42;;;;;;;4.95;2.13;;;;;;;;;;4978159;28;20026;-65
2021/10/15 13:11:08;;;;;;;4.03;2.10;;;;;;;;;;4978576;28;20049;-65
2021/10/15 13:13:34;;;;;;;3.97;1.77;;;;;;;;;;4979285;28;20108;-66
2021/10/15 13:16:00;;;;;;;1.38;1.20;;;;;;;;;;4978008;28;20076;-66
2021/10/15 13:18:26;;;;;;;4.28;1.55;;;;;;;;;;4975997;28;20042;-65
2021/10/15 13:20:51;;;;;;;2.88;1.20;;;;;;;;;;4978715;28;20096;-65
2021/10/15 13:23:17;;;;;;;3.67;1.10;;;;;;;;;;4993721;28;20034;-66
2021/10/15 13:25:43;;;;;;;4.43;1.30;;;;;;;;;;4978219;28;20034;-66
2021/10/15 13:28:09;;;;;;;1.70;1.20;;;;;;;;;;4960472;28;20038;-66
2021/10/15 13:30:35;;;;;;;2.60;1.10;;;;;;;;;;4978499;28;20490;-66
2021/10/15 13:33:02;;;;;;;3.40;1.10;;;;;;;;;;4989412;28;20047;-66
2021/10/15 13:35:28;;;;;;;3.17;1.50;;;;;;;;;;4977721;28;20173;-66
2021/10/15 13:37:59;;;;;;;4.88;1.60;;;;;;;;;;4977764;28;20077;-66
2021/10/15 13:40:28;;;;;;;2.70;1.30;;;;;;;;;;4979389;28;20116;-66
2021/10/15 13:46:27;;;;;;;2.10;1.02;;;;;;;;;;4958928;28;20610;-67
2021/10/15 13:51:38;;;;;;;2.05;0.90;;;;;;;;;;4976357;28;20053;-68
2021/10/15 13:54:04;;;;;;;3.15;1.38;;;;;;;;;;4980547;28;20038;-67
2021/10/15 13:56:31;;;;;;;2.15;1.10;;;;;;;;;;4980198;28;20049;-67
2021/10/15 13:59:09;;;;;;;3.20;1.10;;;;;;;;;;4979788;28;20050;-68
2021/10/15 14:01:40;;;;;;;2.38;1.05;;;;;;;;;;4995214;28;20084;-67
2021/10/15 14:04:28;;;;;;;1.95;1.08;;;;;;;;;;4978398;28;20113;-68
2021/10/15 14:06:54;;;;;;;2.13;1.00;;;;;;;;;;4977380;28;20529;-67
2021/10/15 14:09:20;;;;;;;4.72;1.48;;;;;;;;;;4979073;28;20034;-69
2021/10/15 14:11:46;;;;;;;4.97;1.50;;;;;;;;;;4977375;28;20042;-68
2021/10/15 14:14:13;;;;;;;2.75;1.20;;;;;;;;;;4980595;28;20781;-68
2021/10/15 14:16:39;;;;;;;4.38;1.33;;;;;;;;;;4979494;28;20104;-68
2021/10/15 14:19:05;;;;;;;3.30;1.15;;;;;;;;;;4976287;28;20704;-68
2021/10/15 14:21:31;;;;;;;3.50;1.02;;;;;;;;;;4979823;28;20116;-68
2021/10/15 14:23:57;;;;;;;8.75;1.60;;;;;;;;;;4976720;28;20030;-68
2021/10/15 14:26:23;;;;;;;4.15;1.88;;;;;;;;;;4979241;28;20034;-68
2021/10/15 14:28:51;;;;;;;4.68;1.17;;;;;;;;;;4993044;28;20043;-68
2021/10/15 14:31:17;;;;;;;8.93;2.20;;;;;;;;;;4979313;28;20062;-68
2021/10/15 14:33:43;;;;;;;12.38;2.97;;;;;;;;;;4979658;28;20149;-69
2021/10/15 14:36:09;;;;;;;10.55;1.70;;;;;;;;;;4974675;28;20122;-68
2021/10/15 14:38:35;;;;;;;13.40;8.75;;;;;;;;;;4979599;28;20065;-69
2021/10/15 14:41:01;;;;;;;6.00;2.78;;;;;;;;;;4980190;28;20642;-68